Time;durP1;ratioP1;P1;durP2;ratioP2;P2;SDS_P1;SDS_P2;PMS_P1;PMS_P2;Temp;Humidity;BMP_temperature;BMP_pressure;BME280_temperature;BME280_humidity;BME280_pressure;Samples;Min_cycle;Max_cycle;Signal;HPM_P1;HPM_P2
2021/01/06 00:00:45;;;;;;;27.33;19.10;;;;;;;-144.01;100.00;62166.59;5035783;28;20060;-46
2021/01/06 00:03:14;;;;;;;25.08;17.73;;;;;;;-144.01;100.00;62166.59;5018108;28;20372;-48
2021/01/06 00:05:42;;;;;;;23.00;17.77;;;;;;;-144.01;100.00;62166.59;5016276;28;20054;-46
2021/01/06 00:08:10;;;;;;;27.05;17.98;;;;;;;-144.01;100.00;62166.59;5019693;28;20045;-46
2021/01/06 00:10:37;;;;;;;25.58;18.08;;;;;;;-144.01;100.00;62166.59;5024720;28;20069;-47
2021/01/06 00:13:05;;;;;;;23.80;17.08;;;;;;;-144.01;100.00;62166.59;5016023;28;20054;-46
2021/01/06 00:15:35;;;;;;;21.65;16.10;;;;;;;-144.01;100.00;62166.59;5016037;28;20471;-46
2021/01/06 00:18:03;;;;;;;22.83;15.85;;;;;;;-144.01;100.00;62166.59;5018190;28;20053;-45
2021/01/06 00:20:31;;;;;;;18.60;13.93;;;;;;;-144.01;100.00;62166.59;5009915;28;20064;-46
2021/01/06 00:22:58;;;;;;;19.20;14.65;;;;;;;-144.01;100.00;62166.59;5015620;28;20088;-46
2021/01/06 00:25:28;;;;;;;19.38;14.73;;;;;;;-144.01;100.00;62166.59;5015510;28;20046;-46
2021/01/06 00:27:55;;;;;;;22.23;16.10;;;;;;;-144.01;100.00;62166.59;5021215;28;20475;-48
2021/01/06 00:30:25;;;;;;;22.98;15.40;;;;;;;-144.01;100.00;62166.59;5018425;28;20057;-48
2021/01/06 00:32:52;;;;;;;22.58;16.73;;;;;;;-144.01;100.00;62166.59;5015464;28;20053;-46
2021/01/06 00:35:21;;;;;;;27.15;19.00;;;;;;;-144.01;100.00;62166.59;5015326;28;20054;-47
2021/01/06 00:37:48;;;;;;;24.20;17.30;;;;;;;-144.01;100.00;62166.59;5015225;28;20776;-47
2021/01/06 00:40:17;;;;;;;26.05;18.05;;;;;;;-144.01;100.00;62166.59;5035350;28;20364;-46
2021/01/06 00:42:44;;;;;;;23.63;17.48;;;;;;;-144.01;100.00;62166.59;5021375;28;20357;-48
2021/01/06 00:45:16;;;;;;;25.40;17.75;;;;;;;-144.01;100.00;62166.59;5014302;28;20345;-45
2021/01/06 00:47:43;;;;;;;22.15;16.70;;;;;;;-144.01;100.00;62166.59;5015290;28;20077;-47
2021/01/06 00:50:13;;;;;;;24.35;16.48;;;;;;;-144.01;100.00;62166.59;5033274;28;20053;-45
2021/01/06 00:52:40;;;;;;;22.35;16.25;;;;;;;-144.01;100.00;62166.59;5030723;28;20467;-46
2021/01/06 00:55:09;;;;;;;22.67;15.70;;;;;;;-144.01;100.00;62166.59;5025293;28;20053;-47
2021/01/06 00:57:36;;;;;;;22.05;16.13;;;;;;;-144.01;100.00;62166.59;5018225;28;20049;-45
2021/01/06 01:00:10;;;;;;;21.95;15.63;;;;;;;-144.01;100.00;62166.59;5014563;28;20045;-46
2021/01/06 01:02:37;;;;;;;;;;;;;;;-144.01;100.00;62166.59;5014684;28;20444;-45
2021/01/06 01:05:04;;;;;;;22.42;15.63;;;;;;;-144.01;100.00;62166.59;5031497;28;19931;-46
2021/01/06 01:07:32;;;;;;;21.58;15.55;;;;;;;-144.01;100.00;62166.59;5025531;28;20061;-45
2021/01/06 01:09:59;;;;;;;20.25;14.85;;;;;;;-144.01;100.00;62166.59;5014892;28;20049;-49
2021/01/06 01:12:26;;;;;;;20.48;15.13;;;;;;;-144.01;100.00;62166.59;5014375;28;20057;-46
2021/01/06 01:14:53;;;;;;;21.00;14.85;;;;;;;-144.01;100.00;62166.59;5023694;28;20054;-46
2021/01/06 01:17:20;;;;;;;21.05;15.07;;;;;;;-144.01;100.00;62166.59;5014799;28;20046;-45
2021/01/06 01:19:47;;;;;;;22.65;16.33;;;;;;;-144.01;100.00;62166.59;5014234;28;20060;-45
2021/01/06 01:22:14;;;;;;;23.17;16.73;;;;;;;-144.01;100.00;62166.59;5019838;28;20056;-46
2021/01/06 01:24:41;;;;;;;22.63;16.02;;;;;;;-144.01;100.00;62166.59;5028001;28;20049;-55
2021/01/06 01:27:09;;;;;;;23.38;16.52;;;;;;;-144.01;100.00;62166.59;5034372;28;20508;-45
2021/01/06 01:29:36;;;;;;;22.17;17.25;;;;;;;-144.01;100.00;62166.59;5028447;28;20049;-45
2021/01/06 01:32:03;;;;;;;22.90;16.75;;;;;;;-144.01;100.00;62166.59;5033872;28;20368;-45
2021/01/06 01:34:30;;;;;;;22.15;17.00;;;;;;;-144.01;100.00;62166.59;5026802;28;20108;-45
2021/01/06 01:36:57;;;;;;;23.40;17.00;;;;;;;-144.01;100.00;62166.59;5019823;28;20463;-46
2021/01/06 01:39:25;;;;;;;23.20;16.63;;;;;;;-144.01;100.00;62166.59;5024331;28;20053;-45
2021/01/06 01:41:57;;;;;;;22.92;16.95;;;;;;;-144.01;100.00;62166.59;5032231;28;20814;-45
2021/01/06 01:44:25;;;;;;;23.13;15.77;;;;;;;-144.01;100.00;62166.59;5030314;28;20045;-44
2021/01/06 01:47:06;;;;;;;21.63;16.02;;;;;;;-144.01;100.00;62166.59;5027758;28;20049;-45
2021/01/06 01:49:42;;;;;;;21.88;15.95;;;;;;;-144.01;100.00;62166.59;5015474;28;20685;-46
2021/01/06 01:52:26;;;;;;;24.35;17.13;;;;;;;-144.01;100.00;62166.59;5030886;28;20053;-47
2021/01/06 01:54:55;;;;;;;23.58;17.20;;;;;;;-144.01;100.00;62166.59;5010625;28;20052;-46
2021/01/06 01:57:46;;;;;;;22.98;17.13;;;;;;;-144.01;100.00;62166.59;5024788;28;20045;-46
2021/01/06 02:00:17;;;;;;;21.02;16.42;;;;;;;-144.01;100.00;62166.59;5015043;28;20049;-45
2021/01/06 02:02:56;;;;;;;22.15;17.42;;;;;;;-144.01;100.00;62166.59;5022976;28;20076;-46
2021/01/06 02:05:42;;;;;;;24.30;17.80;;;;;;;-144.01;100.00;62166.59;5007088;28;20479;-45
2021/01/06 02:08:31;;;;;;;23.42;17.50;;;;;;;-144.01;100.00;62166.59;5011696;28;20057;-45
2021/01/06 02:11:11;;;;;;;25.77;16.65;;;;;;;-144.01;100.00;62166.59;5015449;28;20060;-46
2021/01/06 02:14:06;;;;;;;28.35;16.02;;;;;;;-144.01;100.00;62166.59;5033108;28;20478;-45
2021/01/06 02:16:59;;;;;;;19.80;15.90;;;;;;;-144.01;100.00;62166.59;5014283;28;20072;-45
2021/01/06 02:19:38;;;;;;;22.40;16.38;;;;;;;-144.01;100.00;62166.59;5014452;28;20060;-46
2021/01/06 02:22:08;;;;;;;20.55;15.43;;;;;;;-144.01;100.00;62166.59;5030881;28;20452;-45
2021/01/06 02:24:35;;;;;;;21.80;15.68;;;;;;;-144.01;100.00;62166.59;5015572;28;20052;-46
2021/01/06 02:27:03;;;;;;;22.75;15.55;;;;;;;-144.01;100.00;62166.59;5028691;28;20050;-45
2021/01/06 02:29:32;;;;;;;24.95;17.45;;;;;;;-144.01;100.00;62166.59;5015595;28;20460;-45
2021/01/06 02:31:59;;;;;;;24.80;18.33;;;;;;;-144.01;100.00;62166.59;5015614;28;20057;-44
2021/01/06 02:34:27;;;;;;;22.20;17.38;;;;;;;-144.01;100.00;62166.59;5015694;28;20050;-47
2021/01/06 02:36:54;;;;;;;23.58;17.73;;;;;;;-144.01;100.00;62166.59;5022443;28;20046;-45
2021/01/06 02:39:21;;;;;;;23.73;18.17;;;;;;;-144.01;100.00;62166.59;5014862;28;20053;-44
2021/01/06 02:41:48;;;;;;;21.83;16.10;;;;;;;-144.01;100.00;62166.59;5029974;28;20360;-46
2021/01/06 02:44:16;;;;;;;21.67;14.90;;;;;;;-144.01;100.00;62166.59;5039964;28;20064;-45
2021/01/06 02:46:44;;;;;;;21.58;15.02;;;;;;;-144.01;100.00;62166.59;5022445;28;20054;-45
2021/01/06 02:49:13;;;;;;;20.88;16.50;;;;;;;-144.01;100.00;62166.59;5031483;28;20460;-48
2021/01/06 02:52:03;;;;;;;22.02;16.15;;;;;;;-144.01;100.00;62166.59;5015022;28;20053;-45
2021/01/06 02:54:36;;;;;;;22.23;15.57;;;;;;;-144.01;100.00;62166.59;5030177;28;20045;-45
2021/01/06 02:57:05;;;;;;;20.77;16.05;;;;;;;-144.01;100.00;62166.59;5030935;28;20659;-45
2021/01/06 02:59:41;;;;;;;23.48;15.45;;;;;;;-144.01;100.00;62166.59;5031963;28;20486;-55
2021/01/06 03:02:10;;;;;;;22.73;15.88;;;;;;;-144.01;100.00;62166.59;5031467;28;20049;-46
2021/01/06 03:04:44;;;;;;;21.10;16.55;;;;;;;-144.01;100.00;62166.59;5032095;28;20053;-45
2021/01/06 03:07:14;;;;;;;22.05;16.73;;;;;;;-144.01;100.00;62166.59;5015595;28;20060;-45
2021/01/06 03:09:43;;;;;;;21.95;16.45;;;;;;;-144.01;100.00;62166.59;5034074;28;20049;-45
2021/01/06 03:12:17;;;;;;;22.77;17.02;;;;;;;-144.01;100.00;62166.59;5036075;28;20057;-45
2021/01/06 03:14:45;;;;;;;23.70;17.90;;;;;;;-144.01;100.00;62166.59;5033731;28;20057;-45
2021/01/06 03:17:14;;;;;;;25.08;18.17;;;;;;;-144.01;100.00;62166.59;5014603;28;20053;-45
2021/01/06 03:19:53;;;;;;;21.65;16.33;;;;;;;-144.01;100.00;62166.59;5019150;28;20053;-49
2021/01/06 03:22:23;;;;;;;24.05;17.27;;;;;;;-144.01;100.00;62166.59;5014705;28;20049;-45
2021/01/06 03:24:55;;;;;;;25.92;19.55;;;;;;;-144.01;100.00;62166.59;5018745;28;20447;-45
2021/01/06 03:27:22;;;;;;;28.17;18.35;;;;;;;-144.01;100.00;62166.59;5032895;28;20061;-46
2021/01/06 03:29:50;;;;;;;21.67;15.05;;;;;;;-144.01;100.00;62166.59;5027019;28;20057;-46
2021/01/06 03:32:35;;;;;;;23.63;17.13;;;;;;;-144.01;100.00;62166.59;5018468;28;20056;-46
2021/01/06 03:35:09;;;;;;;22.52;16.25;;;;;;;-144.01;100.00;62166.59;5033555;28;20049;-45
2021/01/06 03:37:45;;;;;;;22.10;15.60;;;;;;;-144.01;100.00;62166.59;5007599;28;20056;-45
2021/01/06 03:40:19;;;;;;;18.90;14.50;;;;;;;-144.01;100.00;62166.59;5034806;28;20341;-45
2021/01/06 03:42:46;;;;;;;20.95;14.77;;;;;;;-144.01;100.00;62166.59;5018607;28;20041;-47
2021/01/06 03:45:18;;;;;;;19.58;14.48;;;;;;;-144.01;100.00;62166.59;5025766;28;20053;-47
2021/01/06 03:47:53;;;;;;;21.88;14.82;;;;;;;-144.01;100.00;62166.59;5012164;28;20053;-45
2021/01/06 03:50:30;;;;;;;19.40;14.75;;;;;;;-144.01;100.00;62166.59;5031047;28;20084;-45
2021/01/06 03:53:20;;;;;;;18.83;15.60;;;;;;;-144.01;100.00;62166.59;5035834;28;20056;-48
2021/01/06 03:55:52;;;;;;;23.38;16.73;;;;;;;-144.01;100.00;62166.59;5017171;28;20045;-45
2021/01/06 03:58:44;;;;;;;22.17;16.50;;;;;;;-144.01;100.00;62166.59;5015846;28;20041;-46
2021/01/06 04:01:24;;;;;;;21.30;15.85;;;;;;;-144.01;100.00;62166.59;5042138;28;20049;-46
2021/01/06 04:03:58;;;;;;;22.50;17.00;;;;;;;-144.01;100.00;62166.59;5042030;28;20045;-45
2021/01/06 04:06:26;;;;;;;21.27;15.90;;;;;;;-144.01;100.00;62166.59;5034010;28;20368;-46
2021/01/06 04:08:59;;;;;;;19.75;16.23;;;;;;;-144.01;100.00;62166.59;5016120;28;20464;-44
2021/01/06 04:11:36;;;;;;;22.35;15.85;;;;;;;-144.01;100.00;62166.59;5008107;28;20041;-48
2021/01/06 04:14:04;;;;;;;21.00;15.02;;;;;;;-144.01;100.00;62166.59;5042932;28;20353;-46
2021/01/06 04:16:31;;;;;;;20.45;15.00;;;;;;;-144.01;100.00;62166.59;5035445;28;20049;-45
2021/01/06 04:18:58;;;;;;;20.02;14.60;;;;;;;-144.01;100.00;62166.59;5033115;28;20068;-45
2021/01/06 04:21:29;;;;;;;23.67;16.55;;;;;;;-144.01;100.00;62166.59;5025195;28;20057;-45
2021/01/06 04:23:57;;;;;;;24.40;17.10;;;;;;;-144.01;100.00;62166.59;5027420;28;20472;-45
2021/01/06 04:26:25;;;;;;;22.85;17.40;;;;;;;-144.01;100.00;62166.59;5030959;28;20117;-45
2021/01/06 04:28:52;;;;;;;25.55;17.40;;;;;;;-144.01;100.00;62166.59;5016146;28;20384;-44
2021/01/06 04:31:21;;;;;;;28.92;20.23;;;;;;;-144.01;100.00;62166.59;5032756;28;20052;-46
2021/01/06 04:33:54;;;;;;;31.95;22.67;;;;;;;-144.01;100.00;62166.59;5035436;28;20060;-45
2021/01/06 04:36:29;;;;;;;30.77;21.90;;;;;;;-144.01;100.00;62166.59;5022172;28;20445;-46
2021/01/06 04:38:59;;;;;;;29.25;21.27;;;;;;;-144.01;100.00;62166.59;5027792;28;20060;-45
2021/01/06 04:41:39;;;;;;;31.05;21.98;;;;;;;-144.01;100.00;62166.59;5035327;28;20057;-45
2021/01/06 04:44:41;;;;;;;32.88;22.75;;;;;;;-144.01;100.00;62166.59;5033556;28;20466;-45
2021/01/06 04:47:37;;;;;;;38.85;27.38;;;;;;;-144.01;100.00;62166.59;5033460;28;20065;-45
2021/01/06 04:50:32;;;;;;;42.55;28.55;;;;;;;-144.01;100.00;62166.59;5016075;28;20369;-51
2021/01/06 04:53:18;;;;;;;41.42;25.13;;;;;;;-144.01;100.00;62166.59;5031442;28;20053;-45
2021/01/06 04:56:08;;;;;;;39.10;25.27;;;;;;;-144.01;100.00;62166.59;5032073;28;20064;-49
2021/01/06 04:58:47;;;;;;;37.00;24.60;;;;;;;-144.01;100.00;62166.59;5028773;28;20053;-52
2021/01/06 05:01:45;;;;;;;41.55;26.65;;;;;;;-144.01;100.00;62166.59;5033140;28;20052;-45
2021/01/06 05:04:35;;;;;;;33.00;23.40;;;;;;;-144.01;100.00;62166.59;5032832;28;20050;-56
2021/01/06 05:07:06;;;;;;;42.58;26.73;;;;;;;-144.01;100.00;62166.59;5034217;28;20053;-45
2021/01/06 05:09:47;;;;;;;43.42;28.23;;;;;;;-144.01;100.00;62166.59;5001058;28;20061;-45
2021/01/06 05:12:27;;;;;;;45.55;28.88;;;;;;;-144.01;100.00;62166.59;4997740;28;20052;-46
2021/01/06 05:15:11;;;;;;;45.72;29.08;;;;;;;-144.01;100.00;62166.59;5003677;28;20057;-45
2021/01/06 05:17:40;;;;;;;47.20;29.73;;;;;;;-144.01;100.00;62166.59;5033979;28;20042;-51
2021/01/06 05:20:08;;;;;;;53.30;31.02;;;;;;;-144.01;100.00;62166.59;5017207;28;20391;-44
2021/01/06 05:22:36;;;;;;;52.13;34.35;;;;;;;-144.01;100.00;62166.59;5031662;28;20053;-44
2021/01/06 05:25:04;;;;;;;51.38;35.10;;;;;;;-144.01;100.00;62166.59;5028117;28;20046;-45
2021/01/06 05:27:40;;;;;;;47.92;31.38;;;;;;;-144.01;100.00;62166.59;5016487;28;20049;-44
2021/01/06 05:30:24;;;;;;;41.17;27.52;;;;;;;-144.01;100.00;62166.59;5016961;28;20053;-45
2021/01/06 05:32:58;;;;;;;49.08;32.90;;;;;;;-144.01;100.00;62166.59;5033622;28;20046;-45
2021/01/06 05:35:28;;;;;;;49.83;34.40;;;;;;;-144.01;100.00;62166.59;5018093;28;20057;-44
2021/01/06 05:37:59;;;;;;;52.60;35.00;;;;;;;-144.01;100.00;62166.59;5013696;28;20050;-45
2021/01/06 05:40:29;;;;;;;57.17;37.72;;;;;;;-144.01;100.00;62166.59;5014450;28;20357;-44
2021/01/06 05:43:20;;;;;;;53.83;35.22;;;;;;;-144.01;100.00;62166.59;5014603;28;20049;-45
2021/01/06 05:45:53;;;;;;;52.40;32.78;;;;;;;-144.01;100.00;62166.59;5014213;28;20046;-45
2021/01/06 05:48:23;;;;;;;53.78;34.20;;;;;;;-144.01;100.00;62166.59;5013355;28;20062;-45
2021/01/06 05:51:10;;;;;;;52.65;31.83;;;;;;;-144.01;100.00;62166.59;5013238;28;20384;-45
2021/01/06 05:53:54;;;;;;;41.47;26.75;;;;;;;-144.01;100.00;62166.59;5004324;28;20080;-45
2021/01/06 05:56:36;;;;;;;49.55;29.98;;;;;;;-144.01;100.00;62166.59;5024730;28;20057;-45
2021/01/06 05:59:24;;;;;;;43.45;27.25;;;;;;;-144.01;100.00;62166.59;5030053;28;20053;-44
2021/01/06 06:01:57;;;;;;;52.75;32.13;;;;;;;-144.01;100.00;62166.59;5033932;28;20060;-45
2021/01/06 06:05:08;;;;;;;54.83;36.38;;;;;;;-144.01;100.00;62166.59;5016550;28;20057;-45
2021/01/06 06:07:41;;;;;;;53.17;31.77;;;;;;;-144.01;100.00;62166.59;5020776;28;20060;-45
2021/01/06 06:10:45;;;;;;;50.15;28.15;;;;;;;-144.01;100.00;62166.59;5016359;28;20044;-45
2021/01/06 06:13:40;;;;;;;50.63;33.67;;;;;;;-144.01;100.00;62166.59;5014385;28;20042;-45
2021/01/06 06:16:16;;;;;;;39.45;26.85;;;;;;;-144.01;100.00;62166.59;5020793;28;20045;-45
2021/01/06 06:19:03;;;;;;;34.20;24.10;;;;;;;-144.01;100.00;62166.59;5013986;28;20057;-44
2021/01/06 06:21:39;;;;;;;35.95;26.52;;;;;;;-144.01;100.00;62166.59;5013939;28;20049;-45
2021/01/06 06:24:12;;;;;;;34.45;24.45;;;;;;;-144.01;100.00;62166.59;5019271;28;20061;-44
2021/01/06 06:26:49;;;;;;;33.80;24.35;;;;;;;-144.01;100.00;62166.59;5025928;28;20053;-49
2021/01/06 06:29:37;;;;;;;32.97;23.35;;;;;;;-144.01;100.00;62166.59;5015980;28;20049;-44
2021/01/06 06:32:05;;;;;;;36.60;23.48;;;;;;;-144.01;100.00;62166.59;5032782;28;20060;-44
2021/01/06 06:34:33;;;;;;;36.17;22.52;;;;;;;-144.01;100.00;62166.59;5012959;28;20046;-45
2021/01/06 06:37:10;;;;;;;26.17;19.08;;;;;;;-144.01;100.00;62166.59;5028459;28;20053;-45
2021/01/06 06:39:47;;;;;;;41.50;31.55;;;;;;;-144.01;100.00;62166.59;5032377;28;20044;-44
2021/01/06 06:42:14;;;;;;;27.90;21.60;;;;;;;-144.01;100.00;62166.59;5034273;28;20367;-44
2021/01/06 06:45:16;;;;;;;56.95;37.78;;;;;;;-144.01;100.00;62166.59;5036939;28;20049;-45
2021/01/06 06:48:01;;;;;;;37.55;27.70;;;;;;;-144.01;100.00;62166.59;5012330;28;20049;-45
2021/01/06 06:50:57;;;;;;;33.65;25.38;;;;;;;-144.01;100.00;62166.59;5019964;28;20463;-45
2021/01/06 06:53:37;;;;;;;24.83;18.33;;;;;;;-144.01;100.00;62166.59;5000522;28;20057;-44
2021/01/06 06:56:21;;;;;;;25.85;19.55;;;;;;;-144.01;100.00;62166.59;5034572;28;20064;-45
2021/01/06 06:58:56;;;;;;;19.10;15.23;;;;;;;-144.01;100.00;62166.59;5020038;28;20050;-44
2021/01/06 07:01:33;;;;;;;17.70;13.15;;;;;;;-144.01;100.00;62166.59;5037587;28;20057;-45
2021/01/06 07:04:24;;;;;;;17.80;13.52;;;;;;;-144.01;100.00;62166.59;5021953;28;20057;-44
2021/01/06 07:07:01;;;;;;;19.52;15.10;;;;;;;-144.01;100.00;62166.59;5029852;28;20072;-44
2021/01/06 07:09:38;;;;;;;22.38;15.73;;;;;;;-144.01;100.00;62166.59;5037275;28;20041;-46
2021/01/06 07:12:11;;;;;;;18.88;14.25;;;;;;;-144.01;100.00;62166.59;5019530;28;20045;-47
2021/01/06 07:14:53;;;;;;;18.38;13.60;;;;;;;-144.01;100.00;62166.59;5036956;28;20049;-45
2021/01/06 07:17:34;;;;;;;17.98;12.98;;;;;;;-144.01;100.00;62166.59;5004083;28;20491;-45
2021/01/06 07:20:13;;;;;;;16.70;12.52;;;;;;;-144.01;100.00;62166.59;5017096;28;20049;-45
2021/01/06 07:22:47;;;;;;;16.48;12.35;;;;;;;-144.01;100.00;62166.59;5017223;28;20041;-46
2021/01/06 07:25:17;;;;;;;17.85;12.55;;;;;;;-144.01;100.00;62166.59;5016041;28;20380;-45
2021/01/06 07:28:02;;;;;;;17.88;13.32;;;;;;;-144.01;100.00;62166.59;5016498;28;20054;-44
2021/01/06 07:30:42;;;;;;;19.35;14.48;;;;;;;-144.01;100.00;62166.59;4999627;28;20053;-46
2021/01/06 07:33:21;;;;;;;21.67;15.50;;;;;;;-144.01;100.00;62166.59;5017087;28;20045;-45
2021/01/06 07:35:48;;;;;;;19.70;15.35;;;;;;;-144.01;100.00;62166.59;5024184;28;20041;-45
2021/01/06 07:38:16;;;;;;;22.60;15.88;;;;;;;-144.01;100.00;62166.59;5036277;28;20056;-46
2021/01/06 07:40:46;;;;;;;21.33;15.57;;;;;;;-144.01;100.00;62166.59;5019261;28;20049;-45
2021/01/06 07:43:20;;;;;;;21.27;15.20;;;;;;;-144.01;100.00;62166.59;5024044;28;20057;-45
2021/01/06 07:46:00;;;;;;;24.05;15.60;;;;;;;-144.01;100.00;62166.59;5016611;28;20456;-46
2021/01/06 07:48:44;;;;;;;21.45;15.38;;;;;;;-144.01;100.00;62166.59;5019494;28;20057;-46
2021/01/06 07:51:23;;;;;;;23.08;16.48;;;;;;;-144.01;100.00;62166.59;5016586;28;20054;-45
2021/01/06 07:54:02;;;;;;;25.70;18.40;;;;;;;-144.01;100.00;62166.59;5016000;28;20048;-46
2021/01/06 07:56:50;;;;;;;28.42;19.50;;;;;;;-144.01;100.00;62166.59;5016461;28;20333;-45
2021/01/06 07:59:19;;;;;;;27.50;17.45;;;;;;;-144.01;100.00;62166.59;5033569;28;20049;-45
2021/01/06 08:02:10;;;;;;;23.98;16.33;;;;;;;-144.01;100.00;62166.59;5018688;28;20049;-46
2021/01/06 08:04:55;;;;;;;22.90;16.25;;;;;;;-144.01;100.00;62166.59;5036103;28;20045;-45
2021/01/06 08:07:26;;;;;;;22.75;16.35;;;;;;;-144.01;100.00;62166.59;5027151;28;20046;-45
2021/01/06 08:09:53;;;;;;;25.67;17.08;;;;;;;-144.01;100.00;62166.59;5018868;28;20057;-45
2021/01/06 08:12:26;;;;;;;25.50;19.77;;;;;;;-144.01;100.00;62166.59;5023742;28;20053;-46
2021/01/06 08:15:15;;;;;;;;;;;;;;;-144.01;100.00;62166.59;5016610;28;20049;-45
2021/01/06 08:17:55;;;;;;;26.55;19.63;;;;;;;-144.01;100.00;62166.59;5019676;28;19924;-45
2021/01/06 08:20:33;;;;;;;29.85;21.50;;;;;;;-144.01;100.00;62166.59;5018349;28;20060;-45
2021/01/06 08:23:15;;;;;;;45.13;25.10;;;;;;;-144.01;100.00;62166.59;5034966;28;20052;-46
2021/01/06 08:26:10;;;;;;;36.63;27.25;;;;;;;-144.01;100.00;62166.59;5018121;28;20459;-46
2021/01/06 08:28:37;;;;;;;41.55;32.72;;;;;;;-144.01;100.00;62166.59;5035410;28;20046;-46
2021/01/06 08:31:30;;;;;;;37.22;30.58;;;;;;;-144.01;100.00;62166.59;5035574;28;20448;-46
2021/01/06 08:33:59;;;;;;;41.05;31.00;;;;;;;-144.01;100.00;62166.59;5016309;28;20056;-45
2021/01/06 08:36:36;;;;;;;39.38;33.45;;;;;;;-144.01;100.00;62166.59;5035608;28;20053;-45
2021/01/06 08:39:24;;;;;;;40.03;32.17;;;;;;;-144.01;100.00;62166.59;5007231;28;20049;-46
2021/01/06 08:41:54;;;;;;;42.08;32.88;;;;;;;-144.01;100.00;62166.59;5015535;28;20049;-46
2021/01/06 08:44:33;;;;;;;41.03;32.78;;;;;;;-144.01;100.00;62166.59;5014768;28;20457;-45
2021/01/06 08:47:06;;;;;;;41.60;33.83;;;;;;;-144.01;100.00;62166.59;5014796;28;20049;-46
2021/01/06 08:49:37;;;;;;;41.88;30.35;;;;;;;-144.01;100.00;62166.59;5015486;28;20050;-46
2021/01/06 08:52:18;;;;;;;36.15;29.45;;;;;;;-144.01;100.00;62166.59;5015364;28;20050;-46
2021/01/06 08:55:00;;;;;;;32.90;25.85;;;;;;;-144.01;100.00;62166.59;5032704;28;20049;-45
2021/01/06 08:57:30;;;;;;;;;;;;;;;-144.01;100.00;62166.59;5035342;28;20368;-45
2021/01/06 08:59:57;;;;;;;28.38;22.40;;;;;;;-144.01;100.00;62166.59;5017491;28;19917;-45
2021/01/06 09:02:34;;;;;;;32.10;24.17;;;;;;;-144.01;100.00;62166.59;5017596;28;20482;-45
2021/01/06 09:05:01;;;;;;;34.08;24.60;;;;;;;-144.01;100.00;62166.59;5017025;28;20448;-46
2021/01/06 09:07:33;;;;;;;34.38;26.50;;;;;;;-144.01;100.00;62166.59;5034287;28;20053;-46
2021/01/06 09:10:11;;;;;;;41.47;33.10;;;;;;;-144.01;100.00;62166.59;5034922;28;20049;-46
2021/01/06 09:12:47;;;;;;;37.58;31.60;;;;;;;-144.01;100.00;62166.59;5017392;28;20049;-45
2021/01/06 09:15:49;;;;;;;36.38;29.60;;;;;;;-144.01;100.00;62166.59;5034641;28;20084;-45
2021/01/06 09:18:26;;;;;;;45.58;36.00;;;;;;;-144.01;100.00;62166.59;5017353;28;20392;-45
2021/01/06 09:21:16;;;;;;;35.55;29.13;;;;;;;-144.01;100.00;62166.59;5017011;28;20049;-45
2021/01/06 09:23:53;;;;;;;30.55;24.23;;;;;;;-144.01;100.00;62166.59;5017100;28;20045;-45
2021/01/06 09:26:26;;;;;;;30.58;19.83;;;;;;;-144.01;100.00;62166.59;5017461;28;20045;-46
2021/01/06 09:29:14;;;;;;;23.10;18.92;;;;;;;-144.01;100.00;62166.59;5016781;28;20041;-46
2021/01/06 09:31:45;;;;;;;24.85;17.63;;;;;;;-144.01;100.00;62166.59;5017226;28;20427;-46
2021/01/06 09:34:19;;;;;;;23.95;18.00;;;;;;;-144.01;100.00;62166.59;5034035;28;20056;-46
2021/01/06 09:36:48;;;;;;;24.15;17.70;;;;;;;-144.01;100.00;62166.59;5016840;28;20049;-46
2021/01/06 09:39:20;;;;;;;25.70;18.02;;;;;;;-144.01;100.00;62166.59;5016994;28;20364;-47
2021/01/06 09:41:47;;;;;;;28.15;18.80;;;;;;;-144.01;100.00;62166.59;5016964;28;20053;-46
2021/01/06 09:44:15;;;;;;;26.92;20.48;;;;;;;-144.01;100.00;62166.59;5016819;28;20049;-46
2021/01/06 09:47:00;;;;;;;23.45;18.80;;;;;;;-144.01;100.00;62166.59;5033083;28;20053;-47
2021/01/06 09:49:38;;;;;;;26.02;18.60;;;;;;;-144.01;100.00;62166.59;5033293;28;20456;-46
2021/01/06 09:52:33;;;;;;;31.77;18.65;;;;;;;-144.01;100.00;62166.59;5033467;28;20057;-46
2021/01/06 09:55:00;;;;;;;26.33;19.02;;;;;;;-144.01;100.00;62166.59;5033987;28;20488;-46
2021/01/06 09:57:28;;;;;;;25.25;18.65;;;;;;;-144.01;100.00;62166.59;5016665;28;20053;-46
2021/01/06 10:00:06;;;;;;;29.85;17.85;;;;;;;-144.01;100.00;62166.59;5034389;28;20053;-46
2021/01/06 10:02:35;;;;;;;23.90;17.63;;;;;;;-144.01;100.00;62166.59;5016607;28;20049;-45
2021/01/06 10:05:36;;;;;;;23.05;17.92;;;;;;;-144.01;100.00;62166.59;5003995;28;20062;-47
2021/01/06 10:08:49;;;;;;;28.30;22.50;;;;;;;-144.01;100.00;62166.59;5014159;28;20429;-46
2021/01/06 10:11:48;;;;;;;27.83;20.52;;;;;;;-144.01;100.00;62166.59;4992034;28;20050;-44
2021/01/06 10:14:34;;;;;;;31.30;21.17;;;;;;;-144.01;100.00;62166.59;4973059;28;20054;-46
2021/01/06 10:17:13;;;;;;;26.20;20.27;;;;;;;-144.01;100.00;62166.59;5031882;28;20053;-45
2021/01/06 10:19:48;;;;;;;28.50;18.80;;;;;;;-144.01;100.00;62166.59;5033771;28;20060;-46
2021/01/06 10:22:24;;;;;;;22.00;15.40;;;;;;;-144.01;100.00;62166.59;5016440;28;20053;-46
2021/01/06 10:25:04;;;;;;;19.25;14.82;;;;;;;-144.01;100.00;62166.59;5033219;28;20053;-45
2021/01/06 10:27:38;;;;;;;18.58;13.32;;;;;;;-144.01;100.00;62166.59;5033388;28;20060;-46
2021/01/06 10:30:18;;;;;;;17.05;13.68;;;;;;;-144.01;100.00;62166.59;5016337;28;20049;-46
2021/01/06 10:33:10;;;;;;;15.98;13.48;;;;;;;-144.01;100.00;62166.59;5033645;28;20061;-45
2021/01/06 10:36:07;;;;;;;17.38;12.93;;;;;;;-144.01;100.00;62166.59;5033316;28;20041;-45
2021/01/06 10:38:48;;;;;;;15.40;11.80;;;;;;;-144.01;100.00;62166.59;5033515;28;20651;-45
2021/01/06 10:41:31;;;;;;;14.95;12.75;;;;;;;-144.01;100.00;62166.59;5016229;28;20056;-45
2021/01/06 10:43:59;;;;;;;22.38;15.55;;;;;;;-144.01;100.00;62166.59;5016326;28;20052;-46
2021/01/06 10:46:34;;;;;;;22.02;17.35;;;;;;;-144.01;100.00;62166.59;5033288;28;20045;-46
2021/01/06 10:49:25;;;;;;;18.50;15.02;;;;;;;-144.01;100.00;62166.59;5033750;28;20728;-46
2021/01/06 10:51:58;;;;;;;19.52;16.50;;;;;;;-144.01;100.00;62166.59;4996475;28;20091;-46
2021/01/06 10:54:38;;;;;;;17.15;14.57;;;;;;;-144.01;100.00;62166.59;5033910;28;20068;-46
2021/01/06 10:57:29;;;;;;;16.52;12.07;;;;;;;-144.01;100.00;62166.59;5016160;28;20052;-46
2021/01/06 11:00:17;;;;;;;19.30;14.65;;;;;;;-144.01;100.00;62166.59;5033535;28;20076;-46
2021/01/06 11:03:12;;;;;;;23.83;14.20;;;;;;;-144.01;100.00;62166.59;5033410;28;20049;-45
2021/01/06 11:05:45;;;;;;;24.45;19.08;;;;;;;-144.01;100.00;62166.59;5033220;28;20045;-46
2021/01/06 11:08:30;;;;;;;26.42;17.60;;;;;;;-144.01;100.00;62166.59;5016183;28;20057;-46
2021/01/06 11:11:17;;;;;;;15.23;10.45;;;;;;;-144.01;100.00;62166.59;5033012;28;20060;-46
2021/01/06 11:14:07;;;;;;;27.00;17.15;;;;;;;-144.01;100.00;62166.59;5015860;28;20056;-45
2021/01/06 11:16:51;;;;;;;21.65;18.05;;;;;;;-144.01;100.00;62166.59;5012631;28;20053;-45
2021/01/06 11:19:47;;;;;;;17.10;14.18;;;;;;;-144.01;100.00;62166.59;5033087;28;20050;-45
2021/01/06 11:22:38;;;;;;;10.57;5.38;;;;;;;-144.01;100.00;62166.59;5013540;28;20054;-45
2021/01/06 11:25:38;;;;;;;7.07;5.18;;;;;;;-144.01;100.00;62166.59;5013745;28;20076;-46
2021/01/06 11:28:05;;;;;;;5.47;3.65;;;;;;;-144.01;100.00;62166.59;5032878;28;20482;-45
2021/01/06 11:30:40;;;;;;;4.95;2.90;;;;;;;-144.01;100.00;62166.59;5035772;28;20060;-46
2021/01/06 11:33:19;;;;;;;106.60;76.80;;;;;;;-144.01;100.00;62166.59;5052255;28;20440;-45
2021/01/06 11:36:28;;;;;;;6.10;4.78;;;;;;;-144.01;100.00;62166.59;5036411;28;20475;-45